createdAt,value
2023-01-19T00:01:42.969Z,999
2023-01-19T00:06:43.859Z,999
2023-01-19T00:11:44.772Z,999
2023-01-19T00:16:45.745Z,999
2023-01-19T00:21:46.663Z,999
2023-01-19T00:26:47.996Z,1000
2023-01-19T00:31:49.261Z,1000
2023-01-19T00:36:50.190Z,1000
2023-01-19T00:41:51.220Z,1000
2023-01-19T00:46:52.227Z,1000
2023-01-19T00:51:53.134Z,1000
2023-01-19T00:56:54.039Z,1000
2023-01-19T01:01:55.275Z,1000
2023-01-19T01:06:56.336Z,1000
2023-01-19T01:11:57.423Z,1000
2023-01-19T01:16:58.459Z,1000
2023-01-19T01:21:59.410Z,1000
2023-01-19T01:27:00.416Z,1000
2023-01-19T01:32:01.485Z,1000
2023-01-19T01:37:02.407Z,1000
2023-01-19T01:42:03.342Z,1000
2023-01-19T01:47:04.288Z,1000
2023-01-19T01:52:05.205Z,1000
2023-01-19T01:57:06.094Z,1000
2023-01-19T02:02:07.054Z,1000
2023-01-19T02:07:08.358Z,1000
2023-01-19T02:12:09.302Z,1000
2023-01-19T02:17:10.271Z,1000
2023-01-19T02:22:11.195Z,1000
2023-01-19T02:27:12.134Z,1000
2023-01-19T02:32:13.213Z,1000
2023-01-19T02:37:14.185Z,1000
2023-01-19T02:42:15.130Z,1000
2023-01-19T02:47:16.166Z,1000
2023-01-19T02:52:17.107Z,1000
2023-01-19T02:57:18.147Z,1000
2023-01-19T03:02:19.288Z,1000
2023-01-19T03:07:20.631Z,1000
2023-01-19T03:12:21.628Z,1000
2023-01-19T03:17:22.614Z,1000
2023-01-19T03:22:23.631Z,1000
2023-01-19T03:27:24.613Z,1000
2023-01-19T03:32:25.772Z,1000
2023-01-19T03:37:26.873Z,1000
2023-01-19T03:42:27.811Z,1000
2023-01-19T03:47:28.732Z,1000
2023-01-19T03:52:29.718Z,1000
2023-01-19T03:57:30.758Z,1000
2023-01-19T04:02:31.718Z,1000
2023-01-19T04:07:32.705Z,1000
2023-01-19T04:12:33.648Z,1000
2023-01-19T04:17:34.602Z,1000
2023-01-19T04:22:35.541Z,1000
2023-01-19T04:27:36.453Z,1000
2023-01-19T04:32:37.375Z,1000
2023-01-19T04:37:38.294Z,1000
2023-01-19T04:42:39.193Z,1000
2023-01-19T04:47:40.088Z,1000
2023-01-19T04:52:41.036Z,1000
2023-01-19T04:57:41.957Z,1000
2023-01-19T05:02:43.000Z,1000
2023-01-19T05:07:43.911Z,1000
2023-01-19T05:12:44.940Z,1000
2023-01-19T05:17:45.908Z,1000
2023-01-19T05:22:46.863Z,1000
2023-01-19T05:27:48.362Z,1000
2023-01-19T05:32:49.601Z,1000
2023-01-19T05:37:50.618Z,1000
2023-01-19T05:42:51.553Z,1000
2023-01-19T05:47:52.744Z,1000
2023-01-19T05:52:53.705Z,1001
2023-01-19T05:57:54.640Z,1001
2023-01-19T06:02:55.691Z,1001
2023-01-19T06:07:56.645Z,1001
2023-01-19T06:12:57.561Z,1001
2023-01-19T06:17:58.581Z,1001
2023-01-19T06:22:59.842Z,1001
2023-01-19T06:28:01.041Z,1001
2023-01-19T06:33:02.448Z,1001
2023-01-19T06:38:03.670Z,1001
2023-01-19T06:43:04.587Z,1001
2023-01-19T06:48:05.697Z,1001
2023-01-19T06:53:06.640Z,1001
2023-01-19T06:58:07.574Z,1001
2023-01-19T07:03:08.563Z,1001
2023-01-19T07:08:09.541Z,1001
2023-01-19T07:13:10.453Z,1001
2023-01-19T07:18:11.579Z,1001
2023-01-19T07:23:12.492Z,1001
2023-01-19T07:28:13.399Z,1001
2023-01-19T07:33:14.338Z,1001
2023-01-19T07:38:15.506Z,1001
2023-01-19T07:43:16.642Z,1001
2023-01-19T07:48:17.660Z,1001
2023-01-19T07:53:18.726Z,1001
2023-01-19T07:58:19.767Z,1001
2023-01-19T08:03:20.829Z,1001
2023-01-19T08:08:22.166Z,1001
2023-01-19T08:13:23.175Z,1001
2023-01-19T08:18:24.177Z,1002
2023-01-19T08:23:25.106Z,1002
2023-01-19T08:28:26.089Z,1002
2023-01-19T08:33:27.044Z,1002
2023-01-19T08:38:27.973Z,1002
2023-01-19T08:43:28.972Z,1002
2023-01-19T08:48:30.059Z,1002
2023-01-19T08:53:31.000Z,1002
2023-01-19T08:58:32.017Z,1002
2023-01-19T09:03:32.956Z,1002
2023-01-19T09:08:33.904Z,1002
2023-01-19T09:13:34.849Z,1002
2023-01-19T09:18:35.980Z,1002
2023-01-19T09:23:36.936Z,1002
2023-01-19T09:28:37.866Z,1002
2023-01-19T09:33:38.840Z,1002
2023-01-19T09:38:39.730Z,1002
2023-01-19T09:43:40.672Z,1002
2023-01-19T09:48:41.573Z,1002
2023-01-19T09:53:42.510Z,1002
2023-01-19T09:58:43.431Z,1001
2023-01-19T10:03:44.368Z,1001
2023-01-19T10:08:45.259Z,1001
2023-01-19T10:13:46.170Z,1002
2023-01-19T10:18:47.129Z,1001
2023-01-19T10:23:48.289Z,1002
2023-01-19T10:28:49.444Z,1001
2023-01-19T10:33:50.407Z,1001
2023-01-19T10:38:51.363Z,1001
2023-01-19T10:43:52.310Z,1001
2023-01-19T10:48:53.526Z,1001
2023-01-19T10:53:54.484Z,1001
2023-01-19T10:58:55.417Z,1001
2023-01-19T11:03:56.433Z,1001
2023-01-19T11:08:57.339Z,1001
2023-01-19T11:13:58.256Z,1001
2023-01-19T11:18:59.246Z,1001
2023-01-19T11:24:00.152Z,1001
2023-01-19T11:29:01.083Z,1001
2023-01-19T11:34:02.181Z,1001
2023-01-19T11:39:03.223Z,1001
2023-01-19T11:44:04.177Z,1001
2023-01-19T11:49:05.111Z,1001
2023-01-19T11:54:06.059Z,1001
2023-01-19T11:59:06.948Z,1001
2023-01-19T12:04:07.911Z,1001
2023-01-19T12:09:08.858Z,1001
2023-01-19T12:14:09.792Z,1001
2023-01-19T12:19:10.755Z,1001
2023-01-19T12:24:11.807Z,1001
2023-01-19T12:29:12.740Z,1001
2023-01-19T12:34:13.674Z,1001
2023-01-19T12:39:14.579Z,1001
2023-01-19T12:44:15.501Z,1001
2023-01-19T12:49:16.425Z,1001
2023-01-19T12:54:17.960Z,1001
2023-01-19T12:59:19.845Z,1001
2023-01-19T13:04:20.780Z,1001
2023-01-19T13:09:21.725Z,1001
2023-01-19T13:14:22.649Z,1001
2023-01-19T13:19:23.642Z,1001
2023-01-19T13:24:24.602Z,1001
2023-01-19T13:29:25.534Z,1001
2023-01-19T13:34:26.454Z,1001
2023-01-19T13:39:27.365Z,1001
2023-01-19T13:44:28.295Z,1002
2023-01-19T13:49:29.337Z,1002
2023-01-19T13:54:30.287Z,1002
2023-01-19T13:59:31.237Z,1002
2023-01-19T14:04:32.220Z,1002
2023-01-19T14:09:33.157Z,1002
2023-01-19T14:14:34.294Z,1002
2023-01-19T14:19:35.287Z,1002
2023-01-19T14:24:36.216Z,1002
2023-01-19T14:29:37.114Z,1002
2023-01-19T14:34:38.147Z,1002
2023-01-19T14:39:39.082Z,1002
2023-01-19T14:44:40.022Z,1002
2023-01-19T14:49:40.966Z,1002
2023-01-19T14:54:41.902Z,1002
2023-01-19T14:59:42.837Z,1002
2023-01-19T15:04:43.782Z,1002
2023-01-19T15:09:44.729Z,1002
2023-01-19T15:14:45.708Z,1002
2023-01-19T15:19:46.752Z,1002
2023-01-19T15:24:48.037Z,1002
2023-01-19T15:29:49.298Z,1002
2023-01-19T15:34:50.530Z,1002
2023-01-19T15:39:51.530Z,1002
2023-01-19T15:44:52.485Z,1002
2023-01-19T15:49:53.431Z,1002
2023-01-19T15:54:54.400Z,1002
2023-01-19T15:59:55.383Z,1002
2023-01-19T16:04:56.384Z,1002
2023-01-19T16:09:57.319Z,1002
2023-01-19T16:14:58.245Z,1002
2023-01-19T16:19:59.182Z,1002
2023-01-19T16:25:00.160Z,1002
2023-01-19T16:30:01.083Z,1002
2023-01-19T16:35:02.084Z,1002
2023-01-19T16:40:03.021Z,1002
2023-01-19T16:45:03.927Z,1002
2023-01-19T16:50:04.886Z,1002
2023-01-19T16:55:05.872Z,1002
2023-01-19T17:00:06.911Z,1002
2023-01-19T17:05:07.948Z,1002
2023-01-19T17:10:09.231Z,1002
2023-01-19T17:15:10.535Z,1002
2023-01-19T17:20:11.878Z,1002
2023-01-19T17:25:13.065Z,1002
2023-01-19T17:30:14.312Z,1002
2023-01-19T17:35:15.404Z,1002
2023-01-19T17:40:16.282Z,1002
2023-01-19T17:45:17.196Z,1003
2023-01-19T17:50:18.112Z,1003
2023-01-19T17:55:19.070Z,1003
2023-01-19T18:00:20.114Z,1003
2023-01-19T18:05:21.278Z,1003
2023-01-19T18:10:22.886Z,1003
2023-01-19T18:15:23.842Z,1003
2023-01-19T18:20:24.754Z,1003
2023-01-19T18:25:25.702Z,1003
2023-01-19T18:30:26.651Z,1003
2023-01-19T18:35:27.645Z,1003
2023-01-19T18:40:28.837Z,1003
2023-01-19T18:45:29.803Z,1003
2023-01-19T18:50:30.708Z,1003
2023-01-19T18:55:31.660Z,1003
2023-01-19T19:00:32.630Z,1003
2023-01-19T19:05:38.646Z,1003
2023-01-19T19:10:39.693Z,1003
2023-01-19T19:15:40.673Z,1003
2023-01-19T19:20:43.256Z,1003
2023-01-19T19:25:44.257Z,1003
2023-01-19T19:30:45.821Z,1003
2023-01-19T19:35:46.760Z,1003
2023-01-19T19:40:47.697Z,1004
2023-01-19T19:45:48.888Z,1004
2023-01-19T19:50:50.358Z,1004
2023-01-19T19:55:51.330Z,1004
2023-01-19T20:00:52.390Z,1004
2023-01-19T20:05:53.461Z,1004
2023-01-19T20:10:54.368Z,1004
2023-01-19T20:15:55.331Z,1004
2023-01-19T20:20:56.350Z,1004
2023-01-19T20:25:57.407Z,1004
2023-01-19T20:30:58.354Z,1004
2023-01-19T20:35:59.283Z,1004
2023-01-19T20:41:00.216Z,1004
2023-01-19T20:46:01.188Z,1004
2023-01-19T20:51:02.188Z,1004
2023-01-19T20:56:05.895Z,1004
2023-01-19T21:01:07.244Z,1004
2023-01-19T21:06:08.237Z,1004
2023-01-19T21:11:09.202Z,1004
2023-01-19T21:16:10.253Z,1004
2023-01-19T21:21:28.371Z,1004
2023-01-19T21:26:30.698Z,1004
2023-01-19T21:31:31.713Z,1005
2023-01-19T21:36:32.693Z,1005
2023-01-19T21:41:33.694Z,1005
2023-01-19T21:46:34.595Z,1005
2023-01-19T21:51:35.954Z,1005
2023-01-19T21:56:36.950Z,1005
2023-01-19T22:01:38.025Z,1005
2023-01-19T22:06:39.079Z,1005
2023-01-19T22:11:40.108Z,1005
2023-01-19T22:16:41.095Z,1005
2023-01-19T22:21:42.051Z,1005
2023-01-19T22:26:43.140Z,1005
2023-01-19T22:31:44.063Z,1005
2023-01-19T22:36:45.052Z,1005
2023-01-19T22:41:46.043Z,1005
2023-01-19T22:46:46.994Z,1005
2023-01-19T22:51:47.897Z,1005
2023-01-19T22:56:49.034Z,1005
2023-01-19T23:01:50.390Z,1005
2023-01-19T23:06:51.371Z,1005
2023-01-19T23:11:52.795Z,1005
2023-01-19T23:16:53.711Z,1006
2023-01-19T23:21:54.705Z,1006
2023-01-19T23:26:55.674Z,1006
2023-01-19T23:31:56.701Z,1006
2023-01-19T23:36:57.599Z,1006
2023-01-19T23:41:58.493Z,1006
2023-01-19T23:46:59.416Z,1006
2023-01-19T23:52:00.351Z,1006
2023-01-19T23:57:01.329Z,1006
